Frontera — V2GM3 — position and weather

sailwx.info

Track history (hours):
 
Tides and Currents Weather Stations Pressure Air Temp Water Temp Dewpoint Dewpoint Depression Visibility Wind Speed Wind Dir Waves Ship Positions

Frontera

Last reported at 2018-Jun-22 03:28 UTC. Time now 2018-Jun-22 03:49 UTC.
Position N 53°08' E 008°43'.

Length 106 m; draft 6.3 m.

Type: Cargo ship. MMSI: 305995000.

Date/timePositionNaut miles runAvg speedWind from/ knotsBaromVisibWave heightAir tempDewpointWater temp
2018-Jun-22 03:28N 53°08' E 008°43'0 0.0
2018-Jun-22 03:01N 53°08' E 008°43'0 0.3
2018-Jun-22 02:31N 53°07' E 008°43'0 0.6
2018-Jun-22 02:00N 53°07' E 008°43'2 4.1
2018-Jun-22 01:30N 53°08' E 008°39'4 8.0
2018-Jun-22 01:01N 53°10' E 008°35'4 8.5
2018-Jun-22 00:30N 53°13' E 008°29'4 8.4
2018-Jun-22 00:00N 53°18' E 008°29'4 8.4
2018-Jun-21 23:30N 53°22' E 008°30'4 8.2
2018-Jun-21 23:00N 53°26' E 008°29'4 7.6
2018-Jun-21 22:30N 53°30' E 008°30'4 7.2
2018-Jun-21 22:01N 53°32' E 008°34'4 7.6
2018-Jun-21 21:30N 53°36' E 008°31'4 7.2
2018-Jun-21 21:00N 53°38' E 008°26'4 8.3
2018-Jun-21 20:30N 53°41' E 008°21'4 8.5
2018-Jun-21 19:59N 53°44' E 008°15'4 8.5
2018-Jun-21 19:29N 53°47' E 008°10'86 2.8
2018-Jun-20 12:16N 53°37' E 005°45'2211.1
2018-Jun-20 10:19N 53°30' E 005°10'411.2
2018-Jun-20 09:56N 53°29' E 005°04'164 9.3
2018-Jun-19 16:21N 51°23' E 002°11'410.4
2018-Jun-19 15:58N 51°19' E 002°08'510.2
2018-Jun-19 15:31N 51°15' E 002°05'5 9.2
2018-Jun-19 15:00N 51°11' E 002°00'6 9.0
2018-Jun-19 14:17N 51°08' E 001°51'2 8.4
2018-Jun-19 14:00N 51°07' E 001°48'6 5.7
2018-Jun-19 12:58N 51°02' E 001°53'611.2
2018-Jun-19 12:29N 51°03' E 002°01'612.1
2018-Jun-19 12:00N 51°03' E 002°11'611.9
2018-Jun-19 11:29N 51°04' E 002°20'1 1.1
2018-Jun-19 10:53N 51°03' E 002°20'3 2.7
2018-Jun-19 09:48N 51°02' E 002°16'0 0.0
2018-Jun-19 07:21N 51°02' E 002°16'0 0.0
2018-Jun-19 06:54N 51°02' E 002°16'0 0.0
2018-Jun-19 06:15N 51°02' E 002°16'0 0.0
2018-Jun-19 05:45N 51°02' E 002°16'0 0.0
2018-Jun-19 05:24N 51°02' E 002°16'0 0.0
2018-Jun-19 04:57N 51°02' E 002°16'0 0.0
2018-Jun-19 03:09N 51°02' E 002°16'0 0.0
2018-Jun-19 02:42N 51°02' E 002°16'0 0.0
2018-Jun-19 00:33N 51°02' E 002°16'0 0.0
2018-Jun-19 00:30N 51°02' E 002°16'0 0.0
2018-Jun-18 23:57N 51°02' E 002°16'0 0.0
2018-Jun-18 23:30N 51°02' E 002°16'0 0.0
2018-Jun-18 23:00N 51°02' E 002°16'0 0.0
2018-Jun-18 22:30N 51°02' E 002°16'0 0.0
2018-Jun-18 22:00N 51°02' E 002°16'0 0.0
2018-Jun-18 21:15N 51°02' E 002°16'0 0.0
2018-Jun-18 21:00N 51°02' E 002°16'0 0.0
2018-Jun-18 20:30N 51°02' E 002°16'0 0.0
2018-Jun-18 19:54N 51°02' E 002°16'0 0.0
2018-Jun-18 19:24N 51°02' E 002°16'0 0.0
2018-Jun-18 18:45N 51°02' E 002°16'0 0.0
2018-Jun-18 18:30N 51°02' E 002°16'0 0.0
2018-Jun-18 17:21N 51°02' E 002°16'0 0.0
2018-Jun-18 16:51N 51°02' E 002°16'0 0.0
2018-Jun-18 16:24N 51°02' E 002°16'0 0.0
2018-Jun-18 15:51N 51°02' E 002°16'0 0.0
2018-Jun-18 15:27N 51°02' E 002°16'0 0.0
2018-Jun-18 14:45N 51°02' E 002°16'0 0.0
2018-Jun-18 13:09N 51°02' E 002°16'0 0.0
2018-Jun-18 12:15N 51°02' E 002°16'0 0.0
2018-Jun-18 11:54N 51°02' E 002°16'0 0.0
2018-Jun-18 11:06N 51°02' E 002°16'0 0.0
2018-Jun-18 11:00N 51°02' E 002°16'0 0.0
2018-Jun-18 10:21N 51°02' E 002°16'0 0.0
2018-Jun-18 09:57N 51°02' E 002°16'0 0.0
2018-Jun-18 09:27N 51°02' E 002°16'0 0.0
2018-Jun-18 09:00N 51°02' E 002°16'0 0.0
2018-Jun-18 08:30N 51°02' E 002°16'0 0.0
2018-Jun-18 07:51N 51°02' E 002°16'0 0.0
2018-Jun-18 07:27N 51°02' E 002°16'0 0.0
2018-Jun-18 07:00N 51°02' E 002°16'0 0.0
2018-Jun-18 06:27N 51°02' E 002°16'0 0.0
2018-Jun-18 05:57N 51°02' E 002°16'0 0.0
2018-Jun-18 05:15N 51°02' E 002°16'0 0.0
2018-Jun-18 04:54N 51°02' E 002°16'0 0.0
2018-Jun-18 04:12N 51°02' E 002°16'0 0.0
2018-Jun-18 04:00N 51°02' E 002°16'0 0.0
2018-Jun-18 03:27N 51°02' E 002°16'0 0.0
2018-Jun-18 02:45N 51°02' E 002°16'0 0.0
2018-Jun-18 02:30N 51°02' E 002°16'0 0.0
2018-Jun-18 01:36N 51°02' E 002°16'0 0.0
2018-Jun-18 01:09N 51°02' E 002°16'0 0.0
2018-Jun-18 01:00N 51°02' E 002°16'0 0.0
2018-Jun-18 00:24N 51°02' E 002°16'0 0.0
2018-Jun-18 00:00N 51°02' E 002°16'0 0.0
2018-Jun-17 23:30N 51°02' E 002°16'0 0.0
2018-Jun-17 23:00N 51°02' E 002°16'0 0.0
2018-Jun-17 22:06N 51°02' E 002°16'0 0.0
2018-Jun-17 22:00N 51°02' E 002°16'0 0.0
2018-Jun-17 21:24N 51°02' E 002°16'0 0.0
2018-Jun-17 20:57N 51°02' E 002°16'0 0.0
2018-Jun-17 20:30N 51°02' E 002°16'0 0.0
2018-Jun-17 19:45N 51°02' E 002°16'0 0.0
2018-Jun-17 19:21N 51°02' E 002°16'0 0.0
2018-Jun-17 19:00N 51°02' E 002°16'0 0.0
2018-Jun-17 18:30N 51°02' E 002°16'0 0.0
2018-Jun-17 18:00N 51°02' E 002°16'0 0.0
2018-Jun-17 17:30N 51°02' E 002°16'0 0.0
2018-Jun-17 16:54N 51°02' E 002°16'0 0.0
2018-Jun-17 16:30N 51°02' E 002°16'0 0.0
2018-Jun-17 15:27N 51°02' E 002°16'0 0.0
2018-Jun-17 14:48N 51°02' E 002°16'0 0.0
2018-Jun-17 14:30N 51°02' E 002°16'0 0.0
2018-Jun-17 14:00N 51°02' E 002°16'0 0.0
2018-Jun-17 12:54N 51°02' E 002°16'0 0.0
2018-Jun-17 12:18N 51°02' E 002°16'0 0.0
2018-Jun-17 11:57N 51°02' E 002°16'0 0.0
2018-Jun-17 11:30N 51°02' E 002°16'0 0.0
2018-Jun-17 10:48N 51°02' E 002°16'0 0.0
2018-Jun-17 10:30N 51°02' E 002°16'0 0.0
2018-Jun-17 09:57N 51°02' E 002°16'0 0.0
2018-Jun-17 09:24N 51°02' E 002°16'0 0.0
2018-Jun-17 09:00N 51°02' E 002°16'0 0.0
2018-Jun-17 08:30N 51°02' E 002°16'0 0.0
2018-Jun-17 07:57N 51°02' E 002°16'0 0.0
2018-Jun-17 07:21N 51°02' E 002°16'0 0.0
2018-Jun-17 07:00N 51°02' E 002°16'0 0.0
2018-Jun-17 06:27N 51°02' E 002°16'0 0.0
2018-Jun-17 05:57N 51°02' E 002°16'0 0.0
2018-Jun-17 05:30N 51°02' E 002°16'0 0.0
2018-Jun-17 05:00N 51°02' E 002°16'0 0.0
2018-Jun-17 04:30N 51°02' E 002°16'0 0.0
2018-Jun-17 03:48N 51°02' E 002°16'0 0.0
2018-Jun-17 03:30N 51°02' E 002°16'0 0.0
2018-Jun-17 03:00N 51°02' E 002°16'0 0.0
2018-Jun-17 02:30N 51°02' E 002°16'0 0.0
2018-Jun-17 02:00N 51°02' E 002°16'0 0.0
2018-Jun-17 01:18N 51°02' E 002°16'0 0.0
2018-Jun-17 00:21N 51°02' E 002°16'0 0.0
2018-Jun-16 23:51N 51°02' E 002°16'0 0.0
2018-Jun-16 23:30N 51°02' E 002°16'0 0.0
2018-Jun-16 22:57N 51°02' E 002°16'0 0.0
2018-Jun-16 22:27N 51°02' E 002°16'0 0.0
2018-Jun-16 21:54N 51°02' E 002°16'0 0.0
2018-Jun-16 21:27N 51°02' E 002°16'0 0.0
2018-Jun-16 21:00N 51°02' E 002°16'0 0.0
2018-Jun-16 20:24N 51°02' E 002°16'0 0.0
2018-Jun-16 20:00N 51°02' E 002°16'0 0.0
2018-Jun-16 18:48N 51°02' E 002°16'0 0.0
2018-Jun-16 18:30N 51°02' E 002°16'0 0.0
2018-Jun-16 18:00N 51°02' E 002°16'0 0.0
2018-Jun-16 17:30N 51°02' E 002°16'0 0.0
2018-Jun-16 16:45N 51°02' E 002°16'0 0.0
2018-Jun-16 16:24N 51°02' E 002°16'0 0.0
2018-Jun-16 15:57N 51°02' E 002°16'0 0.0
2018-Jun-16 15:27N 51°02' E 002°16'0 0.0
2018-Jun-16 15:00N 51°02' E 002°16'0 0.0
2018-Jun-16 14:18N 51°02' E 002°16'0 0.0
2018-Jun-16 14:00N 51°02' E 002°16'0 0.0
2018-Jun-16 12:33N 51°02' E 002°16'0 0.0
2018-Jun-16 12:21N 51°02' E 002°16'0 0.0
2018-Jun-16 11:18N 51°02' E 002°16'0 0.0
2018-Jun-16 10:57N 51°02' E 002°16'0 0.0
2018-Jun-16 10:27N 51°02' E 002°16'0 0.0
2018-Jun-16 09:09N 51°02' E 002°16'0 0.0
2018-Jun-16 08:48N 51°02' E 002°16'0 0.0
2018-Jun-16 08:24N 51°02' E 002°16'0 0.0
2018-Jun-16 07:57N 51°02' E 002°16'0 0.0
2018-Jun-16 07:30N 51°02' E 002°16'0 0.3
2018-Jun-16 06:57N 51°02' E 002°16'0 0.0
2018-Jun-16 06:30N 51°02' E 002°16'0 0.0
2018-Jun-16 05:57N 51°02' E 002°16'0 0.0
2018-Jun-16 05:27N 51°02' E 002°16'0 0.0
2018-Jun-16 04:54N 51°02' E 002°16'0 0.0
2018-Jun-16 04:27N 51°02' E 002°16'0 0.0
2018-Jun-16 03:54N 51°02' E 002°16'0 0.0
2018-Jun-16 03:26N 51°02' E 002°16'0 0.0
2018-Jun-16 02:53N 51°02' E 002°16'0 0.0
2018-Jun-16 02:26N 51°02' E 002°16'0 0.0
2018-Jun-16 01:57N 51°02' E 002°16'0 0.0
2018-Jun-16 01:29N 51°02' E 002°16'0 0.0
2018-Jun-16 00:54N 51°02' E 002°16'0 0.0
2018-Jun-16 00:06N 51°02' E 002°16'0 0.0
2018-Jun-15 23:45N 51°02' E 002°16'0 0.0
2018-Jun-15 23:30N 51°02' E 002°16'0 0.0
2018-Jun-15 23:00N 51°02' E 002°16'0 0.0
2018-Jun-15 22:21N 51°02' E 002°16'0 0.0
2018-Jun-15 21:57N 51°02' E 002°16'0 0.0
2018-Jun-15 21:23N 51°02' E 002°16'0 0.0
2018-Jun-15 21:00N 51°02' E 002°16'0 0.0
2018-Jun-15 20:24N 51°02' E 002°16'0 0.0
2018-Jun-15 19:59N 51°02' E 002°16'0 0.0
2018-Jun-15 19:27N 51°02' E 002°16'0 0.0
2018-Jun-15 18:59N 51°02' E 002°16'0 0.0
2018-Jun-15 18:26N 51°02' E 002°16'0 0.0
2018-Jun-15 17:57N 51°02' E 002°16'0 0.0
2018-Jun-15 17:29N 51°02' E 002°16'0 0.0
2018-Jun-15 16:59N 51°02' E 002°16'0 0.0
2018-Jun-15 16:29N 51°02' E 002°16'0 0.0
2018-Jun-15 15:56N 51°02' E 002°16'0 0.0
2018-Jun-15 15:26N 51°02' E 002°16'0 0.0
2018-Jun-15 14:53N 51°02' E 002°16'0 0.0
2018-Jun-15 14:14N 51°02' E 002°16'0 0.0
2018-Jun-15 14:00N 51°02' E 002°16'0 0.0
2018-Jun-15 13:30N 51°02' E 002°16'0 0.0
2018-Jun-15 12:56N 51°02' E 002°16'0 0.0
2018-Jun-15 12:29N 51°02' E 002°16'0 0.0
2018-Jun-15 12:00N 51°02' E 002°16'0 0.0
2018-Jun-15 11:20N 51°02' E 002°16'0 0.0
2018-Jun-15 10:51N 51°02' E 002°16'0 0.0
2018-Jun-15 10:26N 51°02' E 002°16'0 0.0
2018-Jun-15 09:59N 51°02' E 002°16'0 0.0
2018-Jun-15 09:29N 51°02' E 002°16'0 0.0
2018-Jun-15 08:47N 51°02' E 002°16'0 0.0
2018-Jun-15 08:26N 51°02' E 002°16'0 0.0
2018-Jun-15 07:59N 51°02' E 002°16'0 0.0
2018-Jun-15 07:15N 51°02' E 002°16'0 0.0
2018-Jun-15 06:57N 51°02' E 002°16'0 0.0
2018-Jun-15 06:20N 51°02' E 002°16'0 0.0
2018-Jun-15 05:59N 51°02' E 002°16'0 0.0
2018-Jun-15 05:27N 51°02' E 002°16'0 0.0
2018-Jun-15 04:57N 51°02' E 002°16'0 0.0
2018-Jun-15 04:30N 51°02' E 002°16'0 0.0
2018-Jun-15 03:32N 51°02' E 002°16'0 0.0
2018-Jun-15 03:27N 51°02' E 002°16'0 0.0
2018-Jun-15 02:59N 51°02' E 002°16'0 0.0
2018-Jun-15 02:29N 51°02' E 002°16'0 0.0
2018-Jun-15 01:56N 51°02' E 002°16'0 0.0
2018-Jun-15 01:06N 51°02' E 002°16'0 0.0
2018-Jun-15 00:41N 51°02' E 002°16'0 0.0
2018-Jun-15 00:20N 51°02' E 002°16'0 0.0
2018-Jun-14 23:53N 51°02' E 002°16'0 0.0
2018-Jun-14 23:08N 51°02' E 002°16'0 0.0
2018-Jun-14 22:20N 51°02' E 002°16'0 0.0
2018-Jun-14 21:53N 51°02' E 002°16'0 0.0
2018-Jun-14 21:29N 51°02' E 002°16'0 0.0
2018-Jun-14 20:56N 51°02' E 002°16'0 0.0
2018-Jun-14 20:29N 51°02' E 002°16'0 0.0
2018-Jun-14 19:27N 51°02' E 002°16'0 0.0
2018-Jun-14 18:56N 51°02' E 002°16'0 0.0
2018-Jun-14 18:29N 51°02' E 002°16'2 3.4
2018-Jun-14 17:59N 51°03' E 002°19'1 2.2
2018-Jun-14 17:24N 51°03' E 002°21'1 1.7
2018-Jun-14 16:58N 51°04' E 002°20'510.8
2018-Jun-14 16:28N 51°03' E 002°12'611.1
2018-Jun-14 15:59N 51°03' E 002°03'911.5
2018-Jun-14 15:14N 51°02' E 001°50'1 2.7
2018-Jun-14 14:59N 51°03' E 001°50'1 2.2
2018-Jun-14 14:29N 51°02' E 001°48'5 9.8
2018-Jun-14 14:01N 51°02' E 001°41'911.5
2018-Jun-14 13:15N 50°55' E 001°31'4611.7
2018-Jun-14 09:21N 50°24' E 000°38'512.9
2018-Jun-14 08:57N 50°23' E 000°30'8610.4
2018-Jun-14 00:42N 50°01' W 001°40'2 7.9
2018-Jun-14 00:28N 50°00' W 001°42'  
Track history (hours):
 
Tides and Currents Weather Stations Pressure Air Temp Water Temp Dewpoint Dewpoint Depression Visibility Wind Speed Wind Dir Waves Ship Positions

Frontera

Last reported at 2018-Jun-22 03:28 UTC. Time now 2018-Jun-22 03:49 UTC.
Position N 53°08' E 008°43'.

Length 106 m; draft 6.3 m.

Type: Cargo ship. MMSI: 305995000.

Date/timePositionNaut miles runAvg speedWind from/ knotsBaromVisibWave heightAir tempDewpointWater temp
2018-Jun-22 03:28N 53°08' E 008°43'0 0.0
2018-Jun-22 03:01N 53°08' E 008°43'0 0.3
2018-Jun-22 02:31N 53°07' E 008°43'0 0.6
2018-Jun-22 02:00N 53°07' E 008°43'2 4.1
2018-Jun-22 01:30N 53°08' E 008°39'4 8.0
2018-Jun-22 01:01N 53°10' E 008°35'4 8.5
2018-Jun-22 00:30N 53°13' E 008°29'4 8.4
2018-Jun-22 00:00N 53°18' E 008°29'4 8.4
2018-Jun-21 23:30N 53°22' E 008°30'4 8.2
2018-Jun-21 23:00N 53°26' E 008°29'4 7.6
2018-Jun-21 22:30N 53°30' E 008°30'4 7.2
2018-Jun-21 22:01N 53°32' E 008°34'4 7.6
2018-Jun-21 21:30N 53°36' E 008°31'4 7.2
2018-Jun-21 21:00N 53°38' E 008°26'4 8.3
2018-Jun-21 20:30N 53°41' E 008°21'4 8.5
2018-Jun-21 19:59N 53°44' E 008°15'4 8.5
2018-Jun-21 19:29N 53°47' E 008°10'86 2.8
2018-Jun-20 12:16N 53°37' E 005°45'2211.1
2018-Jun-20 10:19N 53°30' E 005°10'411.2
2018-Jun-20 09:56N 53°29' E 005°04'164 9.3
2018-Jun-19 16:21N 51°23' E 002°11'410.4
2018-Jun-19 15:58N 51°19' E 002°08'510.2
2018-Jun-19 15:31N 51°15' E 002°05'5 9.2
2018-Jun-19 15:00N 51°11' E 002°00'6 9.0
2018-Jun-19 14:17N 51°08' E 001°51'2 8.4
2018-Jun-19 14:00N 51°07' E 001°48'6 5.7
2018-Jun-19 12:58N 51°02' E 001°53'611.2
2018-Jun-19 12:29N 51°03' E 002°01'612.1
2018-Jun-19 12:00N 51°03' E 002°11'611.9
2018-Jun-19 11:29N 51°04' E 002°20'1 1.1
2018-Jun-19 10:53N 51°03' E 002°20'3 2.7
2018-Jun-19 09:48N 51°02' E 002°16'0 0.0
2018-Jun-19 07:21N 51°02' E 002°16'0 0.0
2018-Jun-19 06:54N 51°02' E 002°16'0 0.0
2018-Jun-19 06:15N 51°02' E 002°16'0 0.0
2018-Jun-19 05:45N 51°02' E 002°16'0 0.0
2018-Jun-19 05:24N 51°02' E 002°16'0 0.0
2018-Jun-19 04:57N 51°02' E 002°16'0 0.0
2018-Jun-19 03:09N 51°02' E 002°16'0 0.0
2018-Jun-19 02:42N 51°02' E 002°16'0 0.0
2018-Jun-19 00:33N 51°02' E 002°16'0 0.0
2018-Jun-19 00:30N 51°02' E 002°16'0 0.0
2018-Jun-18 23:57N 51°02' E 002°16'0 0.0
2018-Jun-18 23:30N 51°02' E 002°16'0 0.0
2018-Jun-18 23:00N 51°02' E 002°16'0 0.0
2018-Jun-18 22:30N 51°02' E 002°16'0 0.0
2018-Jun-18 22:00N 51°02' E 002°16'0 0.0
2018-Jun-18 21:15N 51°02' E 002°16'0 0.0
2018-Jun-18 21:00N 51°02' E 002°16'0 0.0
2018-Jun-18 20:30N 51°02' E 002°16'0 0.0
2018-Jun-18 19:54N 51°02' E 002°16'0 0.0
2018-Jun-18 19:24N 51°02' E 002°16'0 0.0
2018-Jun-18 18:45N 51°02' E 002°16'0 0.0
2018-Jun-18 18:30N 51°02' E 002°16'0 0.0
2018-Jun-18 17:21N 51°02' E 002°16'0 0.0
2018-Jun-18 16:51N 51°02' E 002°16'0 0.0
2018-Jun-18 16:24N 51°02' E 002°16'0 0.0
2018-Jun-18 15:51N 51°02' E 002°16'0 0.0
2018-Jun-18 15:27N 51°02' E 002°16'0 0.0
2018-Jun-18 14:45N 51°02' E 002°16'0 0.0
2018-Jun-18 13:09N 51°02' E 002°16'0 0.0
2018-Jun-18 12:15N 51°02' E 002°16'0 0.0
2018-Jun-18 11:54N 51°02' E 002°16'0 0.0
2018-Jun-18 11:06N 51°02' E 002°16'0 0.0
2018-Jun-18 11:00N 51°02' E 002°16'0 0.0
2018-Jun-18 10:21N 51°02' E 002°16'0 0.0
2018-Jun-18 09:57N 51°02' E 002°16'0 0.0
2018-Jun-18 09:27N 51°02' E 002°16'0 0.0
2018-Jun-18 09:00N 51°02' E 002°16'0 0.0
2018-Jun-18 08:30N 51°02' E 002°16'0 0.0
2018-Jun-18 07:51N 51°02' E 002°16'0 0.0
2018-Jun-18 07:27N 51°02' E 002°16'0 0.0
2018-Jun-18 07:00N 51°02' E 002°16'0 0.0
2018-Jun-18 06:27N 51°02' E 002°16'0 0.0
2018-Jun-18 05:57N 51°02' E 002°16'0 0.0
2018-Jun-18 05:15N 51°02' E 002°16'0 0.0
2018-Jun-18 04:54N 51°02' E 002°16'0 0.0
2018-Jun-18 04:12N 51°02' E 002°16'0 0.0
2018-Jun-18 04:00N 51°02' E 002°16'0 0.0
2018-Jun-18 03:27N 51°02' E 002°16'0 0.0
2018-Jun-18 02:45N 51°02' E 002°16'0 0.0
2018-Jun-18 02:30N 51°02' E 002°16'0 0.0
2018-Jun-18 01:36N 51°02' E 002°16'0 0.0
2018-Jun-18 01:09N 51°02' E 002°16'0 0.0
2018-Jun-18 01:00N 51°02' E 002°16'0 0.0
2018-Jun-18 00:24N 51°02' E 002°16'0 0.0
2018-Jun-18 00:00N 51°02' E 002°16'0 0.0
2018-Jun-17 23:30N 51°02' E 002°16'0 0.0
2018-Jun-17 23:00N 51°02' E 002°16'0 0.0
2018-Jun-17 22:06N 51°02' E 002°16'0 0.0
2018-Jun-17 22:00N 51°02' E 002°16'0 0.0
2018-Jun-17 21:24N 51°02' E 002°16'0 0.0
2018-Jun-17 20:57N 51°02' E 002°16'0 0.0
2018-Jun-17 20:30N 51°02' E 002°16'0 0.0
2018-Jun-17 19:45N 51°02' E 002°16'0 0.0
2018-Jun-17 19:21N 51°02' E 002°16'0 0.0
2018-Jun-17 19:00N 51°02' E 002°16'0 0.0
2018-Jun-17 18:30N 51°02' E 002°16'0 0.0
2018-Jun-17 18:00N 51°02' E 002°16'0 0.0
2018-Jun-17 17:30N 51°02' E 002°16'0 0.0
2018-Jun-17 16:54N 51°02' E 002°16'0 0.0
2018-Jun-17 16:30N 51°02' E 002°16'0 0.0
2018-Jun-17 15:27N 51°02' E 002°16'0 0.0
2018-Jun-17 14:48N 51°02' E 002°16'0 0.0
2018-Jun-17 14:30N 51°02' E 002°16'0 0.0
2018-Jun-17 14:00N 51°02' E 002°16'0 0.0
2018-Jun-17 12:54N 51°02' E 002°16'0 0.0
2018-Jun-17 12:18N 51°02' E 002°16'0 0.0
2018-Jun-17 11:57N 51°02' E 002°16'0 0.0
2018-Jun-17 11:30N 51°02' E 002°16'0 0.0
2018-Jun-17 10:48N 51°02' E 002°16'0 0.0
2018-Jun-17 10:30N 51°02' E 002°16'0 0.0
2018-Jun-17 09:57N 51°02' E 002°16'0 0.0
2018-Jun-17 09:24N 51°02' E 002°16'0 0.0
2018-Jun-17 09:00N 51°02' E 002°16'0 0.0
2018-Jun-17 08:30N 51°02' E 002°16'0 0.0
2018-Jun-17 07:57N 51°02' E 002°16'0 0.0
2018-Jun-17 07:21N 51°02' E 002°16'0 0.0
2018-Jun-17 07:00N 51°02' E 002°16'0 0.0
2018-Jun-17 06:27N 51°02' E 002°16'0 0.0
2018-Jun-17 05:57N 51°02' E 002°16'0 0.0
2018-Jun-17 05:30N 51°02' E 002°16'0 0.0
2018-Jun-17 05:00N 51°02' E 002°16'0 0.0
2018-Jun-17 04:30N 51°02' E 002°16'0 0.0
2018-Jun-17 03:48N 51°02' E 002°16'0 0.0
2018-Jun-17 03:30N 51°02' E 002°16'0 0.0
2018-Jun-17 03:00N 51°02' E 002°16'0 0.0
2018-Jun-17 02:30N 51°02' E 002°16'0 0.0
2018-Jun-17 02:00N 51°02' E 002°16'0 0.0
2018-Jun-17 01:18N 51°02' E 002°16'0 0.0
2018-Jun-17 00:21N 51°02' E 002°16'0 0.0
2018-Jun-16 23:51N 51°02' E 002°16'0 0.0
2018-Jun-16 23:30N 51°02' E 002°16'0 0.0
2018-Jun-16 22:57N 51°02' E 002°16'0 0.0
2018-Jun-16 22:27N 51°02' E 002°16'0 0.0
2018-Jun-16 21:54N 51°02' E 002°16'0 0.0
2018-Jun-16 21:27N 51°02' E 002°16'0 0.0
2018-Jun-16 21:00N 51°02' E 002°16'0 0.0
2018-Jun-16 20:24N 51°02' E 002°16'0 0.0
2018-Jun-16 20:00N 51°02' E 002°16'0 0.0
2018-Jun-16 18:48N 51°02' E 002°16'0 0.0
2018-Jun-16 18:30N 51°02' E 002°16'0 0.0
2018-Jun-16 18:00N 51°02' E 002°16'0 0.0
2018-Jun-16 17:30N 51°02' E 002°16'0 0.0
2018-Jun-16 16:45N 51°02' E 002°16'0 0.0
2018-Jun-16 16:24N 51°02' E 002°16'0 0.0
2018-Jun-16 15:57N 51°02' E 002°16'0 0.0
2018-Jun-16 15:27N 51°02' E 002°16'0 0.0
2018-Jun-16 15:00N 51°02' E 002°16'0 0.0
2018-Jun-16 14:18N 51°02' E 002°16'0 0.0
2018-Jun-16 14:00N 51°02' E 002°16'0 0.0
2018-Jun-16 12:33N 51°02' E 002°16'0 0.0
2018-Jun-16 12:21N 51°02' E 002°16'0 0.0
2018-Jun-16 11:18N 51°02' E 002°16'0 0.0
2018-Jun-16 10:57N 51°02' E 002°16'0 0.0
2018-Jun-16 10:27N 51°02' E 002°16'0 0.0
2018-Jun-16 09:09N 51°02' E 002°16'0 0.0
2018-Jun-16 08:48N 51°02' E 002°16'0 0.0
2018-Jun-16 08:24N 51°02' E 002°16'0 0.0
2018-Jun-16 07:57N 51°02' E 002°16'0 0.0
2018-Jun-16 07:30N 51°02' E 002°16'0 0.3
2018-Jun-16 06:57N 51°02' E 002°16'0 0.0
2018-Jun-16 06:30N 51°02' E 002°16'0 0.0
2018-Jun-16 05:57N 51°02' E 002°16'0 0.0
2018-Jun-16 05:27N 51°02' E 002°16'0 0.0
2018-Jun-16 04:54N 51°02' E 002°16'0 0.0
2018-Jun-16 04:27N 51°02' E 002°16'0 0.0
2018-Jun-16 03:54N 51°02' E 002°16'0 0.0
2018-Jun-16 03:26N 51°02' E 002°16'0 0.0
2018-Jun-16 02:53N 51°02' E 002°16'0 0.0
2018-Jun-16 02:26N 51°02' E 002°16'0 0.0
2018-Jun-16 01:57N 51°02' E 002°16'0 0.0
2018-Jun-16 01:29N 51°02' E 002°16'0 0.0
2018-Jun-16 00:54N 51°02' E 002°16'0 0.0
2018-Jun-16 00:06N 51°02' E 002°16'0 0.0
2018-Jun-15 23:45N 51°02' E 002°16'0 0.0
2018-Jun-15 23:30N 51°02' E 002°16'0 0.0
2018-Jun-15 23:00N 51°02' E 002°16'0 0.0
2018-Jun-15 22:21N 51°02' E 002°16'0 0.0
2018-Jun-15 21:57N 51°02' E 002°16'0 0.0
2018-Jun-15 21:23N 51°02' E 002°16'0 0.0
2018-Jun-15 21:00N 51°02' E 002°16'0 0.0
2018-Jun-15 20:24N 51°02' E 002°16'0 0.0
2018-Jun-15 19:59N 51°02' E 002°16'0 0.0
2018-Jun-15 19:27N 51°02' E 002°16'0 0.0
2018-Jun-15 18:59N 51°02' E 002°16'0 0.0
2018-Jun-15 18:26N 51°02' E 002°16'0 0.0
2018-Jun-15 17:57N 51°02' E 002°16'0 0.0
2018-Jun-15 17:29N 51°02' E 002°16'0 0.0
2018-Jun-15 16:59N 51°02' E 002°16'0 0.0
2018-Jun-15 16:29N 51°02' E 002°16'0 0.0
2018-Jun-15 15:56N 51°02' E 002°16'0 0.0
2018-Jun-15 15:26N 51°02' E 002°16'0 0.0
2018-Jun-15 14:53N 51°02' E 002°16'0 0.0
2018-Jun-15 14:14N 51°02' E 002°16'0 0.0
2018-Jun-15 14:00N 51°02' E 002°16'0 0.0
2018-Jun-15 13:30N 51°02' E 002°16'0 0.0
2018-Jun-15 12:56N 51°02' E 002°16'0 0.0
2018-Jun-15 12:29N 51°02' E 002°16'0 0.0
2018-Jun-15 12:00N 51°02' E 002°16'0 0.0
2018-Jun-15 11:20N 51°02' E 002°16'0 0.0
2018-Jun-15 10:51N 51°02' E 002°16'0 0.0
2018-Jun-15 10:26N 51°02' E 002°16'0 0.0
2018-Jun-15 09:59N 51°02' E 002°16'0 0.0
2018-Jun-15 09:29N 51°02' E 002°16'0 0.0
2018-Jun-15 08:47N 51°02' E 002°16'0 0.0
2018-Jun-15 08:26N 51°02' E 002°16'0 0.0
2018-Jun-15 07:59N 51°02' E 002°16'0 0.0
2018-Jun-15 07:15N 51°02' E 002°16'0 0.0
2018-Jun-15 06:57N 51°02' E 002°16'0 0.0
2018-Jun-15 06:20N 51°02' E 002°16'0 0.0
2018-Jun-15 05:59N 51°02' E 002°16'0 0.0
2018-Jun-15 05:27N 51°02' E 002°16'0 0.0
2018-Jun-15 04:57N 51°02' E 002°16'0 0.0
2018-Jun-15 04:30N 51°02' E 002°16'0 0.0
2018-Jun-15 03:32N 51°02' E 002°16'0 0.0
2018-Jun-15 03:27N 51°02' E 002°16'0 0.0
2018-Jun-15 02:59N 51°02' E 002°16'0 0.0
2018-Jun-15 02:29N 51°02' E 002°16'0 0.0
2018-Jun-15 01:56N 51°02' E 002°16'0 0.0
2018-Jun-15 01:06N 51°02' E 002°16'0 0.0
2018-Jun-15 00:41N 51°02' E 002°16'0 0.0
2018-Jun-15 00:20N 51°02' E 002°16'0 0.0
2018-Jun-14 23:53N 51°02' E 002°16'0 0.0
2018-Jun-14 23:08N 51°02' E 002°16'0 0.0
2018-Jun-14 22:20N 51°02' E 002°16'0 0.0
2018-Jun-14 21:53N 51°02' E 002°16'0 0.0
2018-Jun-14 21:29N 51°02' E 002°16'0 0.0
2018-Jun-14 20:56N 51°02' E 002°16'0 0.0
2018-Jun-14 20:29N 51°02' E 002°16'0 0.0
2018-Jun-14 19:27N 51°02' E 002°16'0 0.0
2018-Jun-14 18:56N 51°02' E 002°16'0 0.0
2018-Jun-14 18:29N 51°02' E 002°16'2 3.4
2018-Jun-14 17:59N 51°03' E 002°19'1 2.2
2018-Jun-14 17:24N 51°03' E 002°21'1 1.7
2018-Jun-14 16:58N 51°04' E 002°20'510.8
2018-Jun-14 16:28N 51°03' E 002°12'611.1
2018-Jun-14 15:59N 51°03' E 002°03'911.5
2018-Jun-14 15:14N 51°02' E 001°50'1 2.7
2018-Jun-14 14:59N 51°03' E 001°50'1 2.2
2018-Jun-14 14:29N 51°02' E 001°48'5 9.8
2018-Jun-14 14:01N 51°02' E 001°41'911.5
2018-Jun-14 13:15N 50°55' E 001°31'4611.7
2018-Jun-14 09:21N 50°24' E 000°38'512.9
2018-Jun-14 08:57N 50°23' E 000°30'8610.4
2018-Jun-14 00:42N 50°01' W 001°40'2 7.9
2018-Jun-14 00:28N 50°00' W 001°42'  

Dump ship's entire track history